sensor_id;sensor_type;location;lat;lon;timestamp;pressure;altitude;pressure_sealevel;temperature;humidity
73151;BME280;61354;50.758;6.106;2023-04-06T00:01:10;99401.75;;;3.22;71.36
73151;BME280;61354;50.758;6.106;2023-04-06T00:03:36;99404.00;;;3.20;70.01
73151;BME280;61354;50.758;6.106;2023-04-06T00:06:02;99403.47;;;3.18;70.45
73151;BME280;61354;50.758;6.106;2023-04-06T00:08:28;99398.69;;;3.10;70.53
73151;BME280;61354;50.758;6.106;2023-04-06T00:10:54;99394.31;;;3.09;71.47
73151;BME280;61354;50.758;6.106;2023-04-06T00:13:19;99407.00;;;3.05;71.77
73151;BME280;61354;50.758;6.106;2023-04-06T00:15:45;99396.47;;;3.12;71.12
73151;BME280;61354;50.758;6.106;2023-04-06T00:18:11;99398.06;;;2.99;71.77
73151;BME280;61354;50.758;6.106;2023-04-06T00:20:37;99401.44;;;2.78;71.27
73151;BME280;61354;50.758;6.106;2023-04-06T00:23:02;99396.50;;;2.80;71.78
73151;BME280;61354;50.758;6.106;2023-04-06T00:25:28;99394.59;;;2.94;71.64
73151;BME280;61354;50.758;6.106;2023-04-06T00:27:53;99394.19;;;2.87;72.74
73151;BME280;61354;50.758;6.106;2023-04-06T00:30:20;99386.41;;;2.75;72.45
73151;BME280;61354;50.758;6.106;2023-04-06T00:32:45;99390.31;;;2.88;73.56
73151;BME280;61354;50.758;6.106;2023-04-06T00:35:11;99385.44;;;2.85;71.19
73151;BME280;61354;50.758;6.106;2023-04-06T00:37:37;99385.94;;;2.87;72.16
73151;BME280;61354;50.758;6.106;2023-04-06T00:40:02;99381.38;;;2.82;72.42
73151;BME280;61354;50.758;6.106;2023-04-06T00:42:28;99381.16;;;2.79;72.57
73151;BME280;61354;50.758;6.106;2023-04-06T00:44:59;99380.97;;;2.89;74.58
73151;BME280;61354;50.758;6.106;2023-04-06T00:47:25;99377.28;;;2.80;73.72
73151;BME280;61354;50.758;6.106;2023-04-06T00:49:52;99372.16;;;2.59;72.48
73151;BME280;61354;50.758;6.106;2023-04-06T00:52:19;99376.72;;;2.64;71.70
73151;BME280;61354;50.758;6.106;2023-04-06T00:54:44;99370.19;;;2.79;70.79
73151;BME280;61354;50.758;6.106;2023-04-06T00:57:11;99371.28;;;2.78;72.20
73151;BME280;61354;50.758;6.106;2023-04-06T00:59:38;99371.59;;;2.76;72.09
73151;BME280;61354;50.758;6.106;2023-04-06T01:02:03;99362.56;;;2.76;71.63
73151;BME280;61354;50.758;6.106;2023-04-06T01:04:29;99365.19;;;2.81;71.14
73151;BME280;61354;50.758;6.106;2023-04-06T01:06:55;99360.41;;;2.72;72.41
73151;BME280;61354;50.758;6.106;2023-04-06T01:09:21;99361.78;;;2.56;72.69
73151;BME280;61354;50.758;6.106;2023-04-06T01:11:47;99347.00;;;2.71;73.38
73151;BME280;61354;50.758;6.106;2023-04-06T01:14:13;99350.22;;;2.59;72.68
73151;BME280;61354;50.758;6.106;2023-04-06T01:16:40;99346.09;;;2.43;73.24
73151;BME280;61354;50.758;6.106;2023-04-06T01:19:11;99347.91;;;2.66;73.38
73151;BME280;61354;50.758;6.106;2023-04-06T01:21:37;99346.34;;;2.60;71.90
73151;BME280;61354;50.758;6.106;2023-04-06T01:24:04;99344.47;;;2.74;73.75
73151;BME280;61354;50.758;6.106;2023-04-06T01:26:30;99343.25;;;2.67;73.15
73151;BME280;61354;50.758;6.106;2023-04-06T01:28:56;99339.97;;;2.65;72.71
73151;BME280;61354;50.758;6.106;2023-04-06T01:31:22;99330.31;;;2.54;70.61
73151;BME280;61354;50.758;6.106;2023-04-06T01:33:48;99326.53;;;2.49;73.59
73151;BME280;61354;50.758;6.106;2023-04-06T01:36:14;99328.88;;;2.56;72.56
73151;BME280;61354;50.758;6.106;2023-04-06T01:38:40;99337.28;;;2.46;73.57
73151;BME280;61354;50.758;6.106;2023-04-06T01:41:07;99334.78;;;2.31;72.07
73151;BME280;61354;50.758;6.106;2023-04-06T01:43:33;99327.50;;;2.40;73.02
73151;BME280;61354;50.758;6.106;2023-04-06T01:45:59;99332.41;;;2.43;72.72
73151;BME280;61354;50.758;6.106;2023-04-06T01:48:26;99333.97;;;2.49;74.65
73151;BME280;61354;50.758;6.106;2023-04-06T01:50:52;99320.19;;;2.35;73.01
73151;BME280;61354;50.758;6.106;2023-04-06T01:53:18;99321.28;;;2.53;71.66
73151;BME280;61354;50.758;6.106;2023-04-06T01:55:43;99323.59;;;2.46;72.60
73151;BME280;61354;50.758;6.106;2023-04-06T01:58:09;99320.09;;;2.40;71.54
73151;BME280;61354;50.758;6.106;2023-04-06T02:00:35;99317.28;;;2.45;70.90
73151;BME280;61354;50.758;6.106;2023-04-06T02:03:00;99317.78;;;2.47;69.05
73151;BME280;61354;50.758;6.106;2023-04-06T02:05:28;99321.53;;;2.38;69.34
73151;BME280;61354;50.758;6.106;2023-04-06T02:07:53;99319.91;;;2.37;70.81
73151;BME280;61354;50.758;6.106;2023-04-06T02:10:19;99315.50;;;2.36;68.93
73151;BME280;61354;50.758;6.106;2023-04-06T02:12:44;99311.84;;;2.27;69.48
73151;BME280;61354;50.758;6.106;2023-04-06T02:15:10;99314.13;;;2.19;69.38
73151;BME280;61354;50.758;6.106;2023-04-06T02:17:38;99314.47;;;2.32;68.83
73151;BME280;61354;50.758;6.106;2023-04-06T02:20:05;99308.94;;;2.37;68.27
73151;BME280;61354;50.758;6.106;2023-04-06T02:22:31;99308.28;;;2.26;68.54
73151;BME280;61354;50.758;6.106;2023-04-06T02:24:56;99307.97;;;2.28;68.23
73151;BME280;61354;50.758;6.106;2023-04-06T02:27:22;99307.69;;;2.29;67.95
73151;BME280;61354;50.758;6.106;2023-04-06T02:29:48;99303.75;;;2.35;67.68
73151;BME280;61354;50.758;6.106;2023-04-06T02:32:13;99301.13;;;2.44;67.17
73151;BME280;61354;50.758;6.106;2023-04-06T02:34:39;99294.75;;;2.48;66.99
73151;BME280;61354;50.758;6.106;2023-04-06T02:37:05;99288.66;;;2.52;67.03
73151;BME280;61354;50.758;6.106;2023-04-06T02:39:31;99283.41;;;2.55;66.96
73151;BME280;61354;50.758;6.106;2023-04-06T02:41:56;99280.34;;;2.57;66.85
73151;BME280;61354;50.758;6.106;2023-04-06T02:44:22;99281.38;;;2.61;66.43
73151;BME280;61354;50.758;6.106;2023-04-06T02:46:48;99269.00;;;2.63;66.20
73151;BME280;61354;50.758;6.106;2023-04-06T02:49:14;99278.56;;;2.66;66.25
73151;BME280;61354;50.758;6.106;2023-04-06T02:51:39;99274.16;;;2.65;66.33
73151;BME280;61354;50.758;6.106;2023-04-06T02:54:05;99266.75;;;2.65;65.73
73151;BME280;61354;50.758;6.106;2023-04-06T02:56:30;99264.97;;;2.74;66.28
73151;BME280;61354;50.758;6.106;2023-04-06T02:58:56;99259.06;;;2.81;66.92
73151;BME280;61354;50.758;6.106;2023-04-06T03:01:22;99260.06;;;2.71;66.20
73151;BME280;61354;50.758;6.106;2023-04-06T03:03:47;99266.19;;;2.82;65.98
73151;BME280;61354;50.758;6.106;2023-04-06T03:06:13;99260.28;;;2.75;65.71
73151;BME280;61354;50.758;6.106;2023-04-06T03:08:38;99268.41;;;2.80;66.17
73151;BME280;61354;50.758;6.106;2023-04-06T03:11:04;99264.66;;;2.76;66.02
73151;BME280;61354;50.758;6.106;2023-04-06T03:13:30;99268.09;;;2.82;67.17
73151;BME280;61354;50.758;6.106;2023-04-06T03:15:55;99260.50;;;2.79;66.33
73151;BME280;61354;50.758;6.106;2023-04-06T03:18:22;99261.91;;;2.90;65.37
73151;BME280;61354;50.758;6.106;2023-04-06T03:20:48;99260.72;;;2.96;64.41
73151;BME280;61354;50.758;6.106;2023-04-06T03:23:14;99259.59;;;2.97;64.61
73151;BME280;61354;50.758;6.106;2023-04-06T03:25:40;99264.75;;;2.98;64.64
73151;BME280;61354;50.758;6.106;2023-04-06T03:28:06;99258.16;;;2.99;65.13
73151;BME280;61354;50.758;6.106;2023-04-06T03:30:31;99259.47;;;3.02;64.60
73151;BME280;61354;50.758;6.106;2023-04-06T03:32:57;99256.44;;;3.04;63.67
73151;BME280;61354;50.758;6.106;2023-04-06T03:35:23;99260.69;;;3.10;64.89
73151;BME280;61354;50.758;6.106;2023-04-06T03:37:52;99251.53;;;3.14;64.19
73151;BME280;61354;50.758;6.106;2023-04-06T03:40:18;99250.34;;;3.20;63.83
73151;BME280;61354;50.758;6.106;2023-04-06T03:42:43;99253.56;;;3.22;64.22
73151;BME280;61354;50.758;6.106;2023-04-06T03:45:09;99255.09;;;3.29;63.81
73151;BME280;61354;50.758;6.106;2023-04-06T03:47:35;99249.63;;;3.29;64.14
73151;BME280;61354;50.758;6.106;2023-04-06T03:50:01;99244.00;;;3.34;63.74
73151;BME280;61354;50.758;6.106;2023-04-06T03:52:26;99245.63;;;3.35;63.74
73151;BME280;61354;50.758;6.106;2023-04-06T03:54:52;99254.75;;;3.44;63.64
73151;BME280;61354;50.758;6.106;2023-04-06T03:57:18;99242.16;;;3.43;63.69
73151;BME280;61354;50.758;6.106;2023-04-06T03:59:43;99245.63;;;3.48;63.81
73151;BME280;61354;50.758;6.106;2023-04-06T04:02:09;99242.75;;;3.54;64.05
73151;BME280;61354;50.758;6.106;2023-04-06T04:04:34;99237.47;;;3.57;63.58
73151;BME280;61354;50.758;6.106;2023-04-06T04:07:00;99249.47;;;3.61;63.88
73151;BME280;61354;50.758;6.106;2023-04-06T04:09:26;99246.38;;;3.63;63.59
73151;BME280;61354;50.758;6.106;2023-04-06T04:11:51;99251.28;;;3.66;62.99
73151;BME280;61354;50.758;6.106;2023-04-06T04:14:17;99257.78;;;3.70;63.35
73151;BME280;61354;50.758;6.106;2023-04-06T04:16:42;99247.78;;;3.74;63.92
73151;BME280;61354;50.758;6.106;2023-04-06T04:19:08;99252.47;;;3.73;62.67
73151;BME280;61354;50.758;6.106;2023-04-06T04:21:42;99257.53;;;3.80;62.38
73151;BME280;61354;50.758;6.106;2023-04-06T04:24:09;99248.47;;;3.80;62.57
73151;BME280;61354;50.758;6.106;2023-04-06T04:26:34;99247.34;;;3.81;62.44
73151;BME280;61354;50.758;6.106;2023-04-06T04:29:00;99252.84;;;3.81;63.28
73151;BME280;61354;50.758;6.106;2023-04-06T04:31:26;99253.66;;;3.81;63.08
73151;BME280;61354;50.758;6.106;2023-04-06T04:33:51;99251.59;;;3.87;62.94
73151;BME280;61354;50.758;6.106;2023-04-06T04:36:17;99253.84;;;3.85;63.22
73151;BME280;61354;50.758;6.106;2023-04-06T04:38:43;99254.03;;;3.88;63.03
73151;BME280;61354;50.758;6.106;2023-04-06T04:41:08;99253.22;;;3.88;63.62
73151;BME280;61354;50.758;6.106;2023-04-06T04:43:34;99244.66;;;3.89;62.92
73151;BME280;61354;50.758;6.106;2023-04-06T04:45:59;99247.25;;;3.86;63.72
73151;BME280;61354;50.758;6.106;2023-04-06T04:48:25;99253.75;;;3.90;63.46
73151;BME280;61354;50.758;6.106;2023-04-06T04:50:51;99243.25;;;3.92;63.19
73151;BME280;61354;50.758;6.106;2023-04-06T04:53:17;99242.44;;;3.91;64.16
73151;BME280;61354;50.758;6.106;2023-04-06T04:55:42;99245.50;;;3.90;63.68
73151;BME280;61354;50.758;6.106;2023-04-06T04:58:08;99243.72;;;3.94;62.75
73151;BME280;61354;50.758;6.106;2023-04-06T05:00:36;99240.06;;;3.98;62.98
73151;BME280;61354;50.758;6.106;2023-04-06T05:03:03;99240.38;;;3.97;62.48
73151;BME280;61354;50.758;6.106;2023-04-06T05:05:29;99249.13;;;3.99;63.70
73151;BME280;61354;50.758;6.106;2023-04-06T05:07:56;99246.06;;;4.01;62.87
73151;BME280;61354;50.758;6.106;2023-04-06T05:10:22;99251.53;;;4.01;63.52
73151;BME280;61354;50.758;6.106;2023-04-06T05:12:47;99247.88;;;4.05;63.15
73151;BME280;61354;50.758;6.106;2023-04-06T05:15:13;99243.38;;;4.09;63.02
73151;BME280;61354;50.758;6.106;2023-04-06T05:17:39;99238.88;;;4.13;62.64
73151;BME280;61354;50.758;6.106;2023-04-06T05:20:05;99242.13;;;4.15;62.77
73151;BME280;61354;50.758;6.106;2023-04-06T05:22:31;99243.13;;;4.19;63.04
73151;BME280;61354;50.758;6.106;2023-04-06T05:24:56;99239.25;;;4.20;61.90
73151;BME280;61354;50.758;6.106;2023-04-06T05:27:22;99238.31;;;4.25;61.86
73151;BME280;61354;50.758;6.106;2023-04-06T05:29:48;99248.34;;;4.30;61.46
73151;BME280;61354;50.758;6.106;2023-04-06T05:32:14;99238.16;;;4.30;62.24
73151;BME280;61354;50.758;6.106;2023-04-06T05:34:40;99237.34;;;4.30;62.31
73151;BME280;61354;50.758;6.106;2023-04-06T05:37:06;99243.72;;;4.39;61.25
73151;BME280;61354;50.758;6.106;2023-04-06T05:39:31;99235.66;;;4.42;61.64
73151;BME280;61354;50.758;6.106;2023-04-06T05:41:57;99228.41;;;4.46;61.35
73151;BME280;61354;50.758;6.106;2023-04-06T05:44:22;99229.09;;;4.52;60.75
73151;BME280;61354;50.758;6.106;2023-04-06T05:46:48;99224.59;;;4.56;60.91
73151;BME280;61354;50.758;6.106;2023-04-06T05:49:14;99228.31;;;4.60;61.16
73151;BME280;61354;50.758;6.106;2023-04-06T05:51:39;99231.06;;;4.60;61.67
73151;BME280;61354;50.758;6.106;2023-04-06T05:54:05;99232.22;;;4.68;61.03
73151;BME280;61354;50.758;6.106;2023-04-06T05:56:30;99233.53;;;4.70;61.80
73151;BME280;61354;50.758;6.106;2023-04-06T05:58:57;99233.91;;;4.78;60.64
73151;BME280;61354;50.758;6.106;2023-04-06T06:01:22;99238.47;;;4.82;61.40
73151;BME280;61354;50.758;6.106;2023-04-06T06:03:48;99237.16;;;4.88;60.83
73151;BME280;61354;50.758;6.106;2023-04-06T06:06:13;99238.97;;;4.93;60.83
73151;BME280;61354;50.758;6.106;2023-04-06T06:08:39;99232.84;;;4.96;60.46
73151;BME280;61354;50.758;6.106;2023-04-06T06:11:05;99236.25;;;5.02;60.99
73151;BME280;61354;50.758;6.106;2023-04-06T06:13:30;99235.78;;;5.08;61.43
73151;BME280;61354;50.758;6.106;2023-04-06T06:15:56;99234.53;;;5.14;60.80
73151;BME280;61354;50.758;6.106;2023-04-06T06:18:21;99238.25;;;5.18;60.67
73151;BME280;61354;50.758;6.106;2023-04-06T06:20:47;99237.59;;;5.21;61.39
73151;BME280;61354;50.758;6.106;2023-04-06T06:23:13;99222.41;;;5.33;61.48
73151;BME280;61354;50.758;6.106;2023-04-06T06:25:38;99226.94;;;5.37;61.52
73151;BME280;61354;50.758;6.106;2023-04-06T06:28:04;99225.69;;;5.43;60.94
73151;BME280;61354;50.758;6.106;2023-04-06T06:30:30;99232.97;;;5.48;61.35
73151;BME280;61354;50.758;6.106;2023-04-06T06:32:55;99233.28;;;5.55;61.40
73151;BME280;61354;50.758;6.106;2023-04-06T06:35:21;99239.78;;;5.59;61.61
73151;BME280;61354;50.758;6.106;2023-04-06T06:37:47;99237.53;;;5.70;61.84
73151;BME280;61354;50.758;6.106;2023-04-06T06:40:12;99234.94;;;5.73;61.89
73151;BME280;61354;50.758;6.106;2023-04-06T06:42:38;99239.66;;;5.82;61.41
73151;BME280;61354;50.758;6.106;2023-04-06T06:45:06;99236.09;;;5.90;61.82
73151;BME280;61354;50.758;6.106;2023-04-06T06:47:32;99239.16;;;5.97;61.66
73151;BME280;61354;50.758;6.106;2023-04-06T06:49:57;99242.25;;;6.04;62.22
73151;BME280;61354;50.758;6.106;2023-04-06T06:52:23;99233.50;;;6.11;61.60
73151;BME280;61354;50.758;6.106;2023-04-06T06:54:49;99242.41;;;6.16;62.20
73151;BME280;61354;50.758;6.106;2023-04-06T06:57:15;99232.84;;;6.22;62.34
73151;BME280;61354;50.758;6.106;2023-04-06T06:59:40;99235.44;;;6.28;62.42
73151;BME280;61354;50.758;6.106;2023-04-06T07:02:06;99233.00;;;6.35;61.52
73151;BME280;61354;50.758;6.106;2023-04-06T07:04:32;99235.56;;;6.40;60.43
73151;BME280;61354;50.758;6.106;2023-04-06T07:06:57;99236.03;;;6.51;62.39
73151;BME280;61354;50.758;6.106;2023-04-06T07:09:23;99226.41;;;6.65;61.89
73151;BME280;61354;50.758;6.106;2023-04-06T07:11:49;99226.06;;;6.67;61.75
73151;BME280;61354;50.758;6.106;2023-04-06T07:14:15;99222.47;;;6.75;61.25
73151;BME280;61354;50.758;6.106;2023-04-06T07:16:41;99223.59;;;6.83;62.46
73151;BME280;61354;50.758;6.106;2023-04-06T07:19:07;99214.00;;;6.89;61.78
73151;BME280;61354;50.758;6.106;2023-04-06T07:21:34;99221.44;;;6.97;62.77
73151;BME280;61354;50.758;6.106;2023-04-06T07:24:00;99218.78;;;7.01;61.92
73151;BME280;61354;50.758;6.106;2023-04-06T07:26:27;99216.47;;;7.11;62.51
73151;BME280;61354;50.758;6.106;2023-04-06T07:28:52;99222.59;;;7.17;61.54
73151;BME280;61354;50.758;6.106;2023-04-06T07:31:18;99221.13;;;7.19;61.29
73151;BME280;61354;50.758;6.106;2023-04-06T07:33:44;99222.25;;;7.27;61.68
73151;BME280;61354;50.758;6.106;2023-04-06T07:36:10;99215.22;;;7.30;61.29
73151;BME280;61354;50.758;6.106;2023-04-06T07:38:35;99220.09;;;7.33;62.36
73151;BME280;61354;50.758;6.106;2023-04-06T07:41:01;99221.69;;;7.34;62.22
73151;BME280;61354;50.758;6.106;2023-04-06T07:43:29;99213.56;;;7.37;62.06
73151;BME280;61354;50.758;6.106;2023-04-06T07:45:56;99212.44;;;7.38;62.27
73151;BME280;61354;50.758;6.106;2023-04-06T07:48:23;99222.94;;;7.45;62.28
73151;BME280;61354;50.758;6.106;2023-04-06T07:50:49;99212.81;;;7.49;61.53
73151;BME280;61354;50.758;6.106;2023-04-06T07:53:15;99213.13;;;7.56;61.67
73151;BME280;61354;50.758;6.106;2023-04-06T07:55:40;99213.72;;;7.62;61.43
73151;BME280;61354;50.758;6.106;2023-04-06T07:58:06;99212.38;;;7.68;61.93
73151;BME280;61354;50.758;6.106;2023-04-06T08:00:32;99216.22;;;7.76;61.09
73151;BME280;61354;50.758;6.106;2023-04-06T08:02:58;99216.34;;;7.79;61.60
73151;BME280;61354;50.758;6.106;2023-04-06T08:05:23;99212.91;;;7.82;60.08
73151;BME280;61354;50.758;6.106;2023-04-06T08:07:49;99215.59;;;7.91;59.96
73151;BME280;61354;50.758;6.106;2023-04-06T08:10:15;99206.63;;;7.94;59.59
73151;BME280;61354;50.758;6.106;2023-04-06T08:12:40;99210.78;;;8.00;58.55
73151;BME280;61354;50.758;6.106;2023-04-06T08:15:06;99214.75;;;8.11;59.01
73151;BME280;61354;50.758;6.106;2023-04-06T08:17:32;99215.25;;;8.13;59.17
73151;BME280;61354;50.758;6.106;2023-04-06T08:19:59;99216.28;;;8.21;58.28
73151;BME280;61354;50.758;6.106;2023-04-06T08:22:25;99216.22;;;8.30;59.54
73151;BME280;61354;50.758;6.106;2023-04-06T08:24:50;99225.94;;;8.36;58.15
73151;BME280;61354;50.758;6.106;2023-04-06T08:27:16;99216.31;;;8.42;56.88
73151;BME280;61354;50.758;6.106;2023-04-06T08:29:42;99219.16;;;8.45;57.21
73151;BME280;61354;50.758;6.106;2023-04-06T08:32:07;99212.38;;;8.43;55.87
73151;BME280;61354;50.758;6.106;2023-04-06T08:34:33;99221.13;;;8.45;55.16
73151;BME280;61354;50.758;6.106;2023-04-06T08:36:59;99222.56;;;8.51;54.81
73151;BME280;61354;50.758;6.106;2023-04-06T08:39:24;99233.53;;;8.60;56.52
73151;BME280;61354;50.758;6.106;2023-04-06T08:41:52;99225.94;;;8.69;56.90
73151;BME280;61354;50.758;6.106;2023-04-06T08:44:22;99214.97;;;8.73;57.73
73151;BME280;61354;50.758;6.106;2023-04-06T08:46:48;99220.97;;;8.75;56.55
73151;BME280;61354;50.758;6.106;2023-04-06T08:49:16;99216.34;;;8.79;56.33
73151;BME280;61354;50.758;6.106;2023-04-06T08:51:42;99222.81;;;8.70;54.93
73151;BME280;61354;50.758;6.106;2023-04-06T08:54:07;99218.81;;;8.80;55.29
73151;BME280;61354;50.758;6.106;2023-04-06T08:56:35;99221.34;;;8.85;55.67
73151;BME280;61354;50.758;6.106;2023-04-06T08:59:02;99227.13;;;8.92;56.13
73151;BME280;61354;50.758;6.106;2023-04-06T09:01:29;99232.53;;;8.89;56.90
73151;BME280;61354;50.758;6.106;2023-04-06T09:03:58;99223.06;;;8.90;55.77
73151;BME280;61354;50.758;6.106;2023-04-06T09:06:24;99225.59;;;8.95;57.33
73151;BME280;61354;50.758;6.106;2023-04-06T09:08:51;99226.09;;;8.97;56.62
73151;BME280;61354;50.758;6.106;2023-04-06T09:11:17;99234.00;;;8.74;54.51
73151;BME280;61354;50.758;6.106;2023-04-06T09:13:54;99229.38;;;8.66;55.14
73151;BME280;61354;50.758;6.106;2023-04-06T09:16:21;99236.56;;;8.79;55.51
73151;BME280;61354;50.758;6.106;2023-04-06T09:18:48;99233.22;;;8.86;56.41
73151;BME280;61354;50.758;6.106;2023-04-06T09:21:17;99239.69;;;8.90;56.09
73151;BME280;61354;50.758;6.106;2023-04-06T09:23:43;99239.13;;;8.84;55.21
73151;BME280;61354;50.758;6.106;2023-04-06T09:28:52;99246.03;;;8.90;54.71
73151;BME280;61354;50.758;6.106;2023-04-06T09:31:41;99241.78;;;8.93;55.20
73151;BME280;61354;50.758;6.106;2023-04-06T09:34:06;99244.78;;;9.00;55.49
73151;BME280;61354;50.758;6.106;2023-04-06T09:36:34;99242.47;;;9.02;55.86
73151;BME280;61354;50.758;6.106;2023-04-06T09:39:04;99246.63;;;8.84;54.50
73151;BME280;61354;50.758;6.106;2023-04-06T09:41:32;99248.44;;;8.67;54.35
73151;BME280;61354;50.758;6.106;2023-04-06T09:44:09;99242.44;;;8.78;54.57
73151;BME280;61354;50.758;6.106;2023-04-06T09:46:39;99240.50;;;9.03;56.19
73151;BME280;61354;50.758;6.106;2023-04-06T09:49:06;99244.44;;;9.14;55.66
73151;BME280;61354;50.758;6.106;2023-04-06T09:51:48;99256.81;;;9.04;55.16
73151;BME280;61354;50.758;6.106;2023-04-06T09:54:22;99242.25;;;9.19;56.16
73151;BME280;61354;50.758;6.106;2023-04-06T09:56:56;99245.00;;;9.19;56.81
73151;BME280;61354;50.758;6.106;2023-04-06T09:59:44;99249.88;;;9.23;55.50
73151;BME280;61354;50.758;6.106;2023-04-06T10:02:24;99243.84;;;9.45;55.57
73151;BME280;61354;50.758;6.106;2023-04-06T10:04:59;99241.91;;;9.45;56.43
73151;BME280;61354;50.758;6.106;2023-04-06T10:07:27;99238.91;;;9.38;55.76
73151;BME280;61354;50.758;6.106;2023-04-06T10:09:53;99233.00;;;9.40;55.94
73151;BME280;61354;50.758;6.106;2023-04-06T10:12:20;99238.53;;;9.52;55.95
73151;BME280;61354;50.758;6.106;2023-04-06T10:14:46;99242.69;;;9.58;56.22
73151;BME280;61354;50.758;6.106;2023-04-06T10:17:12;99244.72;;;9.74;56.75
73151;BME280;61354;50.758;6.106;2023-04-06T10:19:53;99239.78;;;9.67;56.70
73151;BME280;61354;50.758;6.106;2023-04-06T10:22:34;99236.31;;;9.58;57.07
73151;BME280;61354;50.758;6.106;2023-04-06T10:25:02;99241.28;;;9.64;57.91
73151;BME280;61354;50.758;6.106;2023-04-06T10:27:28;99244.53;;;9.66;57.75
73151;BME280;61354;50.758;6.106;2023-04-06T10:30:01;99233.06;;;9.80;58.68
73151;BME280;61354;50.758;6.106;2023-04-06T10:32:36;99237.47;;;9.57;58.47
73151;BME280;61354;50.758;6.106;2023-04-06T10:35:09;99246.16;;;9.55;57.04
73151;BME280;61354;50.758;6.106;2023-04-06T10:38:01;99243.63;;;9.38;58.00
73151;BME280;61354;50.758;6.106;2023-04-06T10:40:28;99247.53;;;9.37;59.75
73151;BME280;61354;50.758;6.106;2023-04-06T10:43:08;99242.47;;;9.51;59.12
73151;BME280;61354;50.758;6.106;2023-04-06T10:45:34;99246.63;;;9.33;58.16
73151;BME280;61354;50.758;6.106;2023-04-06T10:48:21;99236.47;;;9.37;58.04
73151;BME280;61354;50.758;6.106;2023-04-06T10:50:48;99235.78;;;9.40;57.99
73151;BME280;61354;50.758;6.106;2023-04-06T10:53:24;99245.00;;;9.32;57.14
73151;BME280;61354;50.758;6.106;2023-04-06T10:55:51;99241.78;;;9.54;58.38
73151;BME280;61354;50.758;6.106;2023-04-06T10:58:18;99239.09;;;9.58;58.85
73151;BME280;61354;50.758;6.106;2023-04-06T11:00:48;99234.16;;;9.51;59.30
73151;BME280;61354;50.758;6.106;2023-04-06T11:03:14;99232.53;;;9.62;58.57
73151;BME280;61354;50.758;6.106;2023-04-06T11:05:49;99231.00;;;9.65;58.19
73151;BME280;61354;50.758;6.106;2023-04-06T11:08:26;99223.09;;;9.39;59.21
73151;BME280;61354;50.758;6.106;2023-04-06T11:11:03;99223.31;;;9.34;58.63
73151;BME280;61354;50.758;6.106;2023-04-06T11:13:42;99229.41;;;9.52;59.56
73151;BME280;61354;50.758;6.106;2023-04-06T11:16:21;99227.78;;;9.63;59.65
73151;BME280;61354;50.758;6.106;2023-04-06T11:21:15;99232.41;;;9.59;59.62
73151;BME280;61354;50.758;6.106;2023-04-06T11:23:41;99234.81;;;9.60;60.47
73151;BME280;61354;50.758;6.106;2023-04-06T11:26:14;99224.91;;;9.59;62.12
73151;BME280;61354;50.758;6.106;2023-04-06T11:28:41;99222.81;;;9.56;60.15
73151;BME280;61354;50.758;6.106;2023-04-06T11:31:09;99222.81;;;9.56;61.95
73151;BME280;61354;50.758;6.106;2023-04-06T11:33:37;99219.13;;;9.52;61.05
73151;BME280;61354;50.758;6.106;2023-04-06T11:36:03;99220.75;;;9.53;61.21
73151;BME280;61354;50.758;6.106;2023-04-06T11:38:29;99221.09;;;9.52;61.64
73151;BME280;61354;50.758;6.106;2023-04-06T11:40:55;99214.97;;;9.58;61.65
73151;BME280;61354;50.758;6.106;2023-04-06T11:43:30;99207.91;;;9.61;62.44
73151;BME280;61354;50.758;6.106;2023-04-06T11:46:03;99209.50;;;9.62;65.84
73151;BME280;61354;50.758;6.106;2023-04-06T11:48:30;99205.28;;;9.52;64.36
73151;BME280;61354;50.758;6.106;2023-04-06T11:50:59;99215.22;;;9.41;63.80
73151;BME280;61354;50.758;6.106;2023-04-06T11:53:29;99222.84;;;9.19;66.38
73151;BME280;61354;50.758;6.106;2023-04-06T11:55:56;99209.91;;;9.24;68.97
73151;BME280;61354;50.758;6.106;2023-04-06T11:58:22;99212.44;;;9.16;69.84
73151;BME280;61354;50.758;6.106;2023-04-06T12:00:48;99215.13;;;9.13;70.43
73151;BME280;61354;50.758;6.106;2023-04-06T12:03:13;99212.25;;;8.97;70.87
73151;BME280;61354;50.758;6.106;2023-04-06T12:05:40;99214.78;;;9.02;71.97
73151;BME280;61354;50.758;6.106;2023-04-06T12:08:05;99212.91;;;8.94;70.79
73151;BME280;61354;50.758;6.106;2023-04-06T12:10:31;99213.03;;;8.98;73.14
73151;BME280;61354;50.758;6.106;2023-04-06T12:12:57;99208.31;;;8.98;73.32
73151;BME280;61354;50.758;6.106;2023-04-06T12:15:22;99206.47;;;9.02;74.27
73151;BME280;61354;50.758;6.106;2023-04-06T12:17:48;99208.53;;;8.93;73.35
73151;BME280;61354;50.758;6.106;2023-04-06T12:20:15;99213.16;;;8.89;73.31
73151;BME280;61354;50.758;6.106;2023-04-06T12:22:40;99211.66;;;8.79;72.23
73151;BME280;61354;50.758;6.106;2023-04-06T12:25:06;99206.22;;;8.83;73.94
73151;BME280;61354;50.758;6.106;2023-04-06T12:27:32;99216.72;;;8.77;72.77
73151;BME280;61354;50.758;6.106;2023-04-06T12:29:58;99203.78;;;8.81;74.33
73151;BME280;61354;50.758;6.106;2023-04-06T12:32:24;99207.47;;;8.73;74.97
73151;BME280;61354;50.758;6.106;2023-04-06T12:34:52;99206.91;;;8.67;76.24
73151;BME280;61354;50.758;6.106;2023-04-06T12:37:17;99198.34;;;8.60;76.62
73151;BME280;61354;50.758;6.106;2023-04-06T12:39:43;99206.88;;;8.55;76.12
73151;BME280;61354;50.758;6.106;2023-04-06T12:42:10;99201.22;;;8.52;78.11
73151;BME280;61354;50.758;6.106;2023-04-06T12:44:36;99203.06;;;8.60;77.18
73151;BME280;61354;50.758;6.106;2023-04-06T12:47:02;99205.25;;;8.54;78.87
73151;BME280;61354;50.758;6.106;2023-04-06T12:49:27;99193.94;;;8.47;78.75
73151;BME280;61354;50.758;6.106;2023-04-06T12:51:53;99189.09;;;8.44;79.68
73151;BME280;61354;50.758;6.106;2023-04-06T12:54:19;99190.47;;;8.38;81.38
73151;BME280;61354;50.758;6.106;2023-04-06T12:56:45;99190.81;;;8.49;81.51
73151;BME280;61354;50.758;6.106;2023-04-06T12:59:11;99188.63;;;8.54;81.54
73151;BME280;61354;50.758;6.106;2023-04-06T13:01:36;99187.94;;;8.57;82.08
73151;BME280;61354;50.758;6.106;2023-04-06T13:04:02;99177.13;;;8.64;82.56
73151;BME280;61354;50.758;6.106;2023-04-06T13:06:28;99178.97;;;8.60;81.88
73151;BME280;61354;50.758;6.106;2023-04-06T13:08:54;99171.72;;;8.68;82.99
73151;BME280;61354;50.758;6.106;2023-04-06T13:11:20;99181.97;;;8.55;82.49
73151;BME280;61354;50.758;6.106;2023-04-06T13:13:49;99170.00;;;8.63;81.63